createdAt,value
2022-09-20T00:07:10.539Z,1.10
2022-09-20T00:21:10.532Z,0.80
2022-09-20T00:35:10.542Z,1.50
2022-09-20T00:49:10.672Z,1.70
2022-09-20T01:03:10.643Z,1.35
2022-09-20T01:17:10.604Z,0.95
2022-09-20T01:31:10.650Z,0.90
2022-09-20T01:45:10.642Z,0.70
2022-09-20T01:59:23.517Z,0.50
2022-09-20T02:13:10.813Z,0.80
2022-09-20T02:27:10.845Z,0.60
2022-09-20T02:41:10.875Z,0.50
2022-09-20T02:55:10.866Z,1.50
2022-09-20T03:09:10.860Z,0.50
2022-09-20T03:23:10.867Z,0.50
2022-09-20T03:37:10.872Z,0.30
2022-09-20T03:51:10.926Z,0.30
2022-09-20T04:05:10.860Z,0.30
2022-09-20T04:19:10.895Z,0.40
2022-09-20T04:33:10.891Z,0.90
2022-09-20T04:47:10.870Z,1.30
2022-09-20T05:02:10.949Z,1.20
2022-09-20T05:17:10.960Z,2.70
2022-09-20T05:32:10.978Z,2.60
2022-09-20T05:47:10.933Z,3.20
2022-09-20T06:02:10.930Z,2.90
2022-09-20T06:17:10.949Z,2.30
2022-09-20T06:33:10.978Z,3.80
2022-09-20T06:48:10.982Z,2.80
2022-09-20T07:04:10.951Z,2.60
2022-09-20T07:19:11.024Z,3.00
2022-09-20T07:34:11.119Z,2.10
2022-09-20T07:49:11.124Z,34.80
2022-09-20T08:04:11.141Z,28.60
2022-09-20T08:19:11.107Z,25.60
2022-09-20T08:34:11.100Z,16.30
2022-09-20T08:49:11.269Z,13.10
2022-09-20T09:04:11.129Z,10.80
2022-09-20T09:19:11.127Z,8.30
2022-09-20T09:34:11.221Z,5.10
2022-09-20T09:49:12.462Z,4.80
2022-09-20T10:04:11.225Z,4.30
2022-09-20T10:19:11.234Z,4.40
2022-09-20T10:34:11.254Z,2.80
2022-09-20T10:49:11.277Z,4.20
2022-09-20T11:04:11.253Z,1.40
2022-09-20T11:19:11.275Z,1.40
2022-09-20T11:34:11.277Z,1.40
2022-09-20T11:49:11.289Z,1.20
2022-09-20T12:04:31.632Z,3.50
2022-09-20T12:20:11.312Z,2.50
2022-09-20T12:35:11.314Z,0.50
2022-09-20T12:50:11.376Z,0.70
2022-09-20T13:05:11.330Z,1.30
2022-09-20T13:20:11.339Z,2.30
2022-09-20T13:35:11.360Z,0.70
2022-09-20T13:50:11.377Z,0.90
2022-09-20T14:05:11.386Z,0.50
2022-09-20T14:20:11.390Z,0.50
2022-09-20T14:35:11.364Z,0.30
2022-09-20T14:50:11.417Z,0.40
2022-09-20T15:05:11.486Z,0.70
2022-09-20T15:20:11.441Z,0.80
2022-09-20T15:35:11.483Z,0.80
2022-09-20T15:50:11.422Z,0.60
2022-09-20T16:05:11.417Z,0.40
2022-09-20T16:20:11.421Z,1.20
2022-09-20T16:35:12.290Z,1.20
2022-09-20T16:51:11.433Z,2.10
2022-09-20T17:06:11.707Z,2.40
2022-09-20T17:21:11.556Z,2.50
2022-09-20T17:36:11.484Z,2.90
2022-09-20T17:51:12.577Z,3.00
2022-09-20T18:06:11.501Z,3.00
2022-09-20T18:20:11.480Z,2.20
2022-09-20T18:35:11.514Z,2.90
2022-09-20T18:49:11.502Z,5.00
2022-09-20T19:03:11.678Z,4.90
2022-09-20T19:17:11.580Z,2.80
2022-09-20T19:31:11.607Z,3.20
2022-09-20T19:45:11.592Z,2.60
2022-09-20T19:59:11.749Z,1.60
2022-09-20T20:13:11.683Z,3.20
2022-09-20T20:27:11.689Z,2.40
2022-09-20T20:41:11.705Z,2.45
2022-09-20T20:55:11.743Z,2.15
2022-09-20T21:09:11.720Z,1.95
2022-09-20T21:23:11.757Z,1.00
2022-09-20T21:37:11.732Z,1.10
2022-09-20T21:51:11.786Z,1.70
2022-09-20T22:05:11.756Z,1.30
2022-09-20T22:19:11.809Z,1.40
2022-09-20T22:33:11.790Z,1.60
2022-09-20T22:47:11.766Z,0.80
2022-09-20T23:01:11.807Z,0.80
2022-09-20T23:15:11.794Z,1.50
2022-09-20T23:29:11.808Z,0.60
2022-09-20T23:43:11.815Z,0.80
2022-09-20T23:57:11.788Z,1.30
